Penns Park, Pennsylvania
Current Conditions -  °F | °C
As of 1:54 PM on Friday 28 Nov 2014 (Local Time) from KDYL Reporting Station
Clear Clear  
Wind Chill: 22°   Ceiling: Unl
Heat Index: 33°   Visibility: 10mi
Dew Point: 15°   Wind: 20mph
Humidity: 48%   Direction: 300°WNW
Pressure: 30.19"   Gusts: 29mph
Location:  40.27°N, 75°W
Report Text: KDYL 281854Z AUTO 30017G25KT 10SM CLR 01/M09 A3019 RMK AO2 SLP232 T00061094 $
Loading
Personal Weather Stations






























Interactive Weather Map New forecast layout! Learn more

10-Day Weather Forecast

Advertisements
Track Severe Weather on mobile